createdAt,value
2018-11-23T00:00:12.782Z,85.81
2018-11-23T00:02:43.284Z,85.29
2018-11-23T00:05:11.756Z,85.23
2018-11-23T00:07:44.467Z,85.82
2018-11-23T00:10:14.481Z,85.50
2018-11-23T00:12:43.117Z,85.97
2018-11-23T00:15:13.501Z,86.34
2018-11-23T00:17:42.022Z,85.71
2018-11-23T00:20:13.670Z,86.27
2018-11-23T00:22:42.249Z,86.10
2018-11-23T00:25:12.978Z,86.20
2018-11-23T00:27:42.779Z,86.20
2018-11-23T00:30:14.264Z,86.36
2018-11-23T00:32:42.795Z,86.32
2018-11-23T00:35:13.862Z,86.75
2018-11-23T00:37:42.439Z,86.61
2018-11-23T00:40:13.258Z,86.68
2018-11-23T00:42:42.288Z,86.73
2018-11-23T00:45:12.696Z,86.99
2018-11-23T00:47:42.185Z,86.83
2018-11-23T00:50:12.825Z,86.52
2018-11-23T00:52:42.197Z,86.69
2018-11-23T00:55:12.258Z,86.83
2018-11-23T00:57:40.814Z,87.22
2018-11-23T01:00:19.578Z,87.51
2018-11-23T01:02:48.052Z,87.34
2018-11-23T01:05:17.880Z,87.05
2018-11-23T01:07:46.854Z,86.61
2018-11-23T01:10:17.102Z,87.07
2018-11-23T01:12:46.602Z,87.06
2018-11-23T01:15:15.115Z,87.00
2018-11-23T01:17:43.627Z,87.04
2018-11-23T01:20:15.404Z,86.71
2018-11-23T01:22:44.124Z,87.05
2018-11-23T01:25:13.977Z,87.00
2018-11-23T01:27:43.270Z,87.17
2018-11-23T01:30:16.307Z,87.21
2018-11-23T01:32:44.877Z,87.20
2018-11-23T01:35:13.689Z,87.14
2018-11-23T01:37:43.398Z,87.66
2018-11-23T01:40:14.437Z,87.10
2018-11-23T01:42:43.670Z,87.73
2018-11-23T01:45:12.824Z,87.18
2018-11-23T01:47:41.343Z,87.46
2018-11-23T01:50:13.989Z,87.42
2018-11-23T01:52:42.939Z,87.67
2018-11-23T01:55:12.222Z,87.49
2018-11-23T01:57:41.353Z,87.52
2018-11-23T02:00:13.164Z,87.72
2018-11-23T02:02:41.662Z,87.81
2018-11-23T02:05:10.595Z,87.38
2018-11-23T02:07:39.582Z,87.80
2018-11-23T02:10:10.360Z,87.47
2018-11-23T02:12:38.928Z,87.75
2018-11-23T02:15:12.390Z,87.58
2018-11-23T02:17:40.834Z,87.98
2018-11-23T02:20:10.847Z,87.61
2018-11-23T02:22:39.347Z,87.81
2018-11-23T02:25:07.916Z,87.49
2018-11-23T02:27:36.378Z,87.76
2018-11-23T02:30:07.978Z,87.66
2018-11-23T02:32:36.455Z,87.87
2018-11-23T02:35:05.012Z,87.91
2018-11-23T02:37:33.407Z,87.79
2018-11-23T02:40:01.810Z,87.82
2018-11-23T02:42:30.270Z,87.88
2018-11-23T02:44:59.286Z,87.52
2018-11-23T02:47:27.842Z,88.04
2018-11-23T02:49:56.241Z,88.41
2018-11-23T02:52:24.675Z,88.11
2018-11-23T02:54:53.140Z,88.09
2018-11-23T02:57:21.527Z,88.40
2018-11-23T02:59:50.024Z,87.81
2018-11-23T03:02:18.435Z,88.21
2018-11-23T03:04:46.877Z,87.30
2018-11-23T03:07:15.985Z,87.70
2018-11-23T03:09:44.417Z,87.51
2018-11-23T03:12:12.787Z,87.64
2018-11-23T03:14:41.197Z,88.31
2018-11-23T03:17:09.598Z,88.15
2018-11-23T03:19:38.056Z,87.92
2018-11-23T03:22:06.497Z,87.80
2018-11-23T03:24:34.945Z,87.78
2018-11-23T03:27:03.424Z,87.39
2018-11-23T03:29:31.834Z,86.82
2018-11-23T03:32:00.305Z,87.68
2018-11-23T03:34:29.610Z,87.77
2018-11-23T03:36:58.062Z,87.73
2018-11-23T03:39:26.471Z,88.52
2018-11-23T03:41:55.007Z,88.10
2018-11-23T03:44:23.426Z,88.16
2018-11-23T03:46:52.607Z,88.05
2018-11-23T03:49:21.018Z,88.19
2018-11-23T03:51:49.525Z,88.50
2018-11-23T03:54:18.128Z,88.23
2018-11-23T03:56:46.605Z,88.43
2018-11-23T03:59:15.128Z,87.70
2018-11-23T04:01:44.459Z,87.63
2018-11-23T04:04:12.906Z,88.29
2018-11-23T04:06:41.353Z,88.30
2018-11-23T04:09:10.558Z,88.10
2018-11-23T04:11:38.975Z,87.58
2018-11-23T04:14:07.399Z,87.51
2018-11-23T04:16:36.881Z,87.47
2018-11-23T04:19:05.396Z,87.78
2018-11-23T04:21:33.830Z,88.64
2018-11-23T04:24:02.277Z,88.80
2018-11-23T04:26:30.909Z,88.56
2018-11-23T04:28:59.329Z,88.19
2018-11-23T04:31:27.875Z,88.36
2018-11-23T04:33:56.292Z,88.17
2018-11-23T04:36:24.698Z,88.15
2018-11-23T04:38:53.151Z,88.30
2018-11-23T04:41:21.672Z,88.77
2018-11-23T04:43:50.537Z,88.99
2018-11-23T04:46:18.989Z,88.99
2018-11-23T04:48:47.526Z,89.14
2018-11-23T04:51:15.901Z,89.07
2018-11-23T04:53:44.303Z,88.54
2018-11-23T04:56:12.749Z,87.67
2018-11-23T04:58:41.738Z,88.29
2018-11-23T05:01:10.216Z,88.69
2018-11-23T05:03:38.648Z,88.88
2018-11-23T05:06:07.177Z,89.55
2018-11-23T05:08:35.708Z,89.40
2018-11-23T05:11:04.188Z,89.19
2018-11-23T05:13:32.594Z,89.21
2018-11-23T05:16:01.147Z,89.33
2018-11-23T05:18:29.580Z,89.58
2018-11-23T05:20:58.468Z,89.41
2018-11-23T05:23:26.949Z,89.47
2018-11-23T05:25:55.393Z,89.62
2018-11-23T05:28:23.920Z,89.28
2018-11-23T05:30:52.348Z,89.74
2018-11-23T05:33:20.745Z,89.51
2018-11-23T05:35:49.156Z,89.89
2018-11-23T05:38:17.546Z,90.01
2018-11-23T05:40:45.970Z,89.61
2018-11-23T05:43:14.356Z,89.52
2018-11-23T05:45:42.826Z,89.58
2018-11-23T05:48:11.300Z,89.47
2018-11-23T05:50:39.801Z,89.21
2018-11-23T05:53:08.215Z,89.53
2018-11-23T05:55:36.665Z,89.54
2018-11-23T05:58:05.137Z,89.57
2018-11-23T06:00:34.040Z,89.15
2018-11-23T06:03:02.725Z,89.10
2018-11-23T06:05:31.216Z,89.29
2018-11-23T06:07:59.699Z,89.45
2018-11-23T06:10:28.110Z,89.99
2018-11-23T06:12:56.517Z,89.62
2018-11-23T06:15:25.565Z,89.81
2018-11-23T06:17:54.015Z,90.03
2018-11-23T06:20:24.728Z,89.81
2018-11-23T06:22:53.778Z,89.65
2018-11-23T06:25:25.004Z,90.19
2018-11-23T06:27:53.855Z,90.23
2018-11-23T06:30:22.318Z,89.63
2018-11-23T06:33:01.819Z,90.23
2018-11-23T06:35:30.434Z,90.05
2018-11-23T06:37:58.853Z,89.92
2018-11-23T06:40:27.324Z,90.01
2018-11-23T06:42:55.741Z,90.50
2018-11-23T06:45:24.560Z,90.14
2018-11-23T06:47:54.134Z,90.56
2018-11-23T06:50:22.656Z,90.41
2018-11-23T06:52:51.248Z,90.31
2018-11-23T06:55:19.934Z,90.06
2018-11-23T06:57:48.429Z,90.43
2018-11-23T07:00:18.136Z,90.82
2018-11-23T07:02:46.811Z,90.75
2018-11-23T07:05:15.615Z,90.76
2018-11-23T07:07:44.446Z,90.62
2018-11-23T07:10:13.165Z,90.50
2018-11-23T07:12:45.118Z,90.64
2018-11-23T07:15:13.718Z,90.62
2018-11-23T07:17:42.709Z,90.52
2018-11-23T07:20:13.463Z,90.48
2018-11-23T07:22:42.476Z,90.67
2018-11-23T07:25:12.193Z,90.24
2018-11-23T07:27:41.199Z,90.55
2018-11-23T07:30:14.187Z,90.21
2018-11-23T07:32:42.743Z,90.60
2018-11-23T07:35:11.751Z,90.23
2018-11-23T07:37:41.381Z,90.15
2018-11-23T07:40:26.966Z,90.10
2018-11-23T07:42:56.081Z,90.22
2018-11-23T07:45:26.157Z,90.55
2018-11-23T07:47:54.639Z,90.54
2018-11-23T07:50:23.206Z,90.43
2018-11-23T07:52:51.637Z,90.49
2018-11-23T07:55:20.945Z,90.48
2018-11-23T07:57:51.197Z,90.33
2018-11-23T08:00:21.089Z,90.13
2018-11-23T08:02:49.766Z,90.62
2018-11-23T08:05:19.038Z,89.88
2018-11-23T08:07:49.190Z,90.30
2018-11-23T08:10:16.805Z,90.33
2018-11-23T08:12:49.544Z,90.17
2018-11-23T08:15:23.230Z,90.40
2018-11-23T08:17:51.759Z,90.72
2018-11-23T08:20:21.558Z,90.54
2018-11-23T08:22:50.081Z,90.30
2018-11-23T08:25:19.971Z,90.01
2018-11-23T08:27:49.436Z,90.27
2018-11-23T08:30:22.724Z,90.33
2018-11-23T08:32:51.201Z,90.18
2018-11-23T08:35:20.907Z,90.14
2018-11-23T08:37:49.378Z,90.20
2018-11-23T08:40:21.118Z,90.33
2018-11-23T08:42:50.619Z,90.31
2018-11-23T08:45:21.156Z,90.40
2018-11-23T08:47:49.637Z,90.40
2018-11-23T08:50:23.653Z,90.26
2018-11-23T08:52:52.218Z,90.16
2018-11-23T08:55:21.142Z,90.26
2018-11-23T08:57:49.699Z,90.31
2018-11-23T09:00:26.727Z,90.34
2018-11-23T09:03:00.737Z,89.99
2018-11-23T09:05:29.177Z,89.56
2018-11-23T09:07:58.223Z,89.53
2018-11-23T09:10:28.377Z,89.15
2018-11-23T09:12:58.554Z,89.12
2018-11-23T09:15:27.091Z,89.91
2018-11-23T09:17:55.597Z,89.34
2018-11-23T09:20:24.147Z,89.20
2018-11-23T09:22:53.292Z,89.52
2018-11-23T09:25:23.115Z,89.34
2018-11-23T09:27:52.014Z,88.90
2018-11-23T09:30:23.750Z,89.51
2018-11-23T09:32:54.791Z,89.08
2018-11-23T09:35:24.142Z,89.20
2018-11-23T09:37:52.785Z,88.60
2018-11-23T09:40:23.805Z,88.83
2018-11-23T09:42:52.901Z,88.43
2018-11-23T09:45:27.825Z,88.28
2018-11-23T09:47:57.769Z,88.56
2018-11-23T09:50:26.908Z,88.86
2018-11-23T09:52:56.424Z,88.53
2018-11-23T09:55:25.505Z,88.55
2018-11-23T09:57:54.125Z,87.98
2018-11-23T10:00:24.747Z,87.70
2018-11-23T10:02:54.447Z,87.21
2018-11-23T10:05:23.698Z,87.66
2018-11-23T10:07:53.922Z,88.15
2018-11-23T10:10:23.066Z,87.41
2018-11-23T10:12:51.555Z,87.85
2018-11-23T10:15:20.646Z,87.82
2018-11-23T10:17:49.231Z,87.26
2018-11-23T10:20:19.480Z,87.20
2018-11-23T10:22:48.338Z,87.64
2018-11-23T10:25:19.488Z,87.54
2018-11-23T10:27:48.357Z,86.99
2018-11-23T10:30:21.595Z,86.63
2018-11-23T10:32:51.386Z,86.31
2018-11-23T10:35:19.860Z,86.67
2018-11-23T10:37:49.980Z,85.81
2018-11-23T10:40:19.918Z,85.69
2018-11-23T10:42:49.898Z,85.30
2018-11-23T10:45:20.584Z,84.36
2018-11-23T10:47:49.818Z,85.42
2018-11-23T10:50:20.514Z,84.79
2018-11-23T10:52:49.070Z,84.42
2018-11-23T10:55:21.078Z,82.96
2018-11-23T10:57:49.693Z,82.66
2018-11-23T11:00:23.981Z,83.02
2018-11-23T11:02:59.425Z,82.68
2018-11-23T11:05:41.918Z,82.68
2018-11-23T11:08:10.579Z,82.60
2018-11-23T11:10:39.062Z,82.93
2018-11-23T11:13:07.729Z,82.79
2018-11-23T11:15:37.236Z,82.18
2018-11-23T11:18:06.678Z,82.08
2018-11-23T11:20:35.167Z,82.37
2018-11-23T11:23:03.662Z,81.99
2018-11-23T11:25:32.094Z,82.15
2018-11-23T11:28:00.614Z,82.15
2018-11-23T11:30:29.067Z,82.19
2018-11-23T11:32:57.583Z,82.78
2018-11-23T11:35:26.033Z,83.12
2018-11-23T11:37:54.532Z,82.85
2018-11-23T11:40:22.961Z,83.50
2018-11-23T11:42:51.583Z,83.66
2018-11-23T11:45:20.112Z,83.17
2018-11-23T11:47:49.045Z,83.09
2018-11-23T11:50:17.680Z,82.91
2018-11-23T11:52:47.585Z,83.26
2018-11-23T11:55:17.363Z,81.10
2018-11-23T11:57:46.441Z,81.16
2018-11-23T12:00:23.525Z,81.48
2018-11-23T12:02:53.034Z,81.86
2018-11-23T12:05:21.496Z,81.72
2018-11-23T12:07:50.006Z,82.24
2018-11-23T12:10:22.029Z,82.23
2018-11-23T12:12:50.523Z,82.01
2018-11-23T12:15:19.871Z,82.36
2018-11-23T12:17:48.369Z,82.70
2018-11-23T12:20:23.289Z,82.63
2018-11-23T12:22:52.055Z,82.60
2018-11-23T12:25:21.036Z,82.24
2018-11-23T12:27:49.602Z,82.74
2018-11-23T12:30:19.374Z,82.69
2018-11-23T12:32:49.061Z,82.73
2018-11-23T12:35:18.675Z,82.31
2018-11-23T12:37:47.187Z,83.83
2018-11-23T12:40:16.977Z,82.26
2018-11-23T12:42:46.014Z,82.34
2018-11-23T12:45:16.398Z,82.86
2018-11-23T12:47:44.850Z,83.58
2018-11-23T12:50:15.326Z,83.73
2018-11-23T12:52:43.833Z,82.73
2018-11-23T12:55:13.343Z,82.85
2018-11-23T12:57:42.825Z,82.99
2018-11-23T13:00:20.050Z,82.25
2018-11-23T13:02:50.231Z,82.35
2018-11-23T13:05:19.229Z,81.05
2018-11-23T13:07:47.699Z,79.73
2018-11-23T13:10:16.249Z,80.28
2018-11-23T13:12:50.681Z,79.38
2018-11-23T13:15:14.119Z,79.37
2018-11-23T13:17:43.657Z,79.21
2018-11-23T13:20:13.627Z,77.50
2018-11-23T13:22:42.281Z,75.53
2018-11-23T13:25:12.735Z,76.11
2018-11-23T13:27:41.654Z,76.90
2018-11-23T13:30:13.764Z,76.69
2018-11-23T13:32:42.890Z,76.25
2018-11-23T13:35:13.009Z,76.50
2018-11-23T13:37:42.124Z,75.86
2018-11-23T13:40:13.267Z,76.68
2018-11-23T13:42:41.896Z,76.31
2018-11-23T13:45:12.460Z,75.36
2018-11-23T13:47:41.143Z,75.31
2018-11-23T13:50:11.986Z,76.24
2018-11-23T13:52:41.659Z,76.15
2018-11-23T13:55:10.201Z,76.38
2018-11-23T13:57:38.699Z,76.82
2018-11-23T14:00:13.737Z,77.50
2018-11-23T14:02:42.223Z,78.59
2018-11-23T14:05:12.838Z,79.32
2018-11-23T14:07:41.811Z,79.24
2018-11-23T14:10:12.633Z,79.55
2018-11-23T14:12:41.417Z,79.90
2018-11-23T14:15:13.405Z,79.67
2018-11-23T14:17:42.682Z,79.10
2018-11-23T14:20:12.596Z,79.51
2018-11-23T14:22:41.176Z,79.97
2018-11-23T14:25:11.930Z,79.66
2018-11-23T14:27:41.197Z,79.56
2018-11-23T14:30:12.689Z,80.46
2018-11-23T14:32:41.355Z,79.98
2018-11-23T14:35:12.075Z,79.62
2018-11-23T14:37:41.916Z,80.13
2018-11-23T14:40:11.598Z,80.12
2018-11-23T14:42:41.321Z,80.91
2018-11-23T14:45:13.462Z,81.22
2018-11-23T14:47:42.274Z,80.80
2018-11-23T14:50:14.589Z,81.59
2018-11-23T14:52:44.211Z,81.85
2018-11-23T14:55:12.829Z,82.34
2018-11-23T14:57:42.654Z,82.14
2018-11-23T15:00:21.903Z,82.72
2018-11-23T15:02:51.683Z,82.74
2018-11-23T15:05:20.367Z,82.76
2018-11-23T15:07:48.896Z,83.61
2018-11-23T15:10:18.775Z,83.96
2018-11-23T15:12:48.613Z,83.78
2018-11-23T15:15:18.524Z,84.18
2018-11-23T15:17:48.034Z,84.69
2018-11-23T15:20:19.564Z,84.90
2018-11-23T15:22:50.366Z,84.63
2018-11-23T15:25:18.884Z,85.01
2018-11-23T15:27:48.329Z,84.81
2018-11-23T15:30:19.486Z,85.75
2018-11-23T15:32:48.108Z,85.39
2018-11-23T15:35:16.975Z,85.76
2018-11-23T15:37:45.521Z,86.37
2018-11-23T15:40:19.452Z,86.06
2018-11-23T15:42:48.691Z,85.91
2018-11-23T15:45:19.761Z,86.14
2018-11-23T15:47:48.290Z,86.17
2018-11-23T15:50:20.030Z,86.51
2018-11-23T15:52:48.702Z,86.25
2018-11-23T15:55:19.803Z,86.89
2018-11-23T15:57:49.273Z,86.47
2018-11-23T16:00:21.495Z,85.95
2018-11-23T16:02:50.434Z,86.14
2018-11-23T16:05:18.995Z,86.18
2018-11-23T16:07:47.874Z,86.77
2018-11-23T16:10:23.683Z,87.08
2018-11-23T16:12:53.452Z,87.67
2018-11-23T16:15:22.631Z,87.16
2018-11-23T16:17:51.650Z,87.50
2018-11-23T16:20:22.036Z,87.39
2018-11-23T16:22:52.918Z,86.93
2018-11-23T16:25:21.398Z,87.24
2018-11-23T16:27:51.562Z,87.13
2018-11-23T16:30:22.967Z,87.25
2018-11-23T16:32:52.455Z,87.17
2018-11-23T16:35:25.146Z,87.36
2018-11-23T16:37:54.648Z,87.67
2018-11-23T16:40:28.454Z,87.76
2018-11-23T16:42:57.630Z,87.63
2018-11-23T16:45:29.904Z,87.75
2018-11-23T16:47:59.401Z,88.32
2018-11-23T16:50:28.309Z,88.02
2018-11-23T16:52:57.206Z,88.47
2018-11-23T16:55:25.874Z,88.31
2018-11-23T16:57:55.994Z,87.90
2018-11-23T17:00:29.085Z,87.85
2018-11-23T17:02:58.919Z,88.37
2018-11-23T17:05:28.994Z,88.08
2018-11-23T17:07:57.429Z,88.24
2018-11-23T17:10:26.576Z,87.88
2018-11-23T17:12:55.046Z,88.01
2018-11-23T17:15:25.001Z,88.53
2018-11-23T17:17:53.552Z,88.25
2018-11-23T17:20:24.188Z,88.38
2018-11-23T17:22:53.811Z,88.34
2018-11-23T17:25:23.244Z,88.55
2018-11-23T17:27:53.249Z,88.41
2018-11-23T17:30:23.772Z,88.31
2018-11-23T17:32:52.264Z,88.47
2018-11-23T17:35:21.024Z,88.38
2018-11-23T17:37:49.596Z,88.46
2018-11-23T17:40:19.495Z,88.82
2018-11-23T17:42:48.008Z,88.57
2018-11-23T17:45:18.221Z,88.66
2018-11-23T17:47:46.758Z,88.50
2018-11-23T17:50:18.957Z,88.28
2018-11-23T17:52:47.969Z,88.26
2018-11-23T17:55:16.445Z,88.00
2018-11-23T17:57:45.637Z,88.65
2018-11-23T18:00:22.984Z,88.26
2018-11-23T18:02:52.327Z,88.43
2018-11-23T18:05:21.817Z,88.09
2018-11-23T18:07:50.549Z,88.56
2018-11-23T18:10:21.254Z,87.81
2018-11-23T18:12:50.175Z,88.31
2018-11-23T18:15:21.133Z,88.04
2018-11-23T18:17:50.420Z,89.04
2018-11-23T18:20:20.040Z,88.10
2018-11-23T18:22:49.360Z,88.03
2018-11-23T18:25:20.425Z,87.67
2018-11-23T18:27:49.340Z,87.69
2018-11-23T18:30:17.834Z,87.43
2018-11-23T18:32:46.236Z,87.62
2018-11-23T18:35:15.245Z,88.26
2018-11-23T18:37:43.720Z,88.22
2018-11-23T18:40:13.619Z,88.13
2018-11-23T18:42:42.689Z,88.55
2018-11-23T18:45:12.864Z,88.37
2018-11-23T18:47:42.759Z,88.32
2018-11-23T18:50:15.482Z,89.03
2018-11-23T18:52:44.080Z,88.34
2018-11-23T18:55:18.131Z,88.38
2018-11-23T18:57:43.117Z,88.61
2018-11-23T19:00:16.346Z,88.85
2018-11-23T19:02:46.775Z,88.60
2018-11-23T19:05:20.616Z,89.03
2018-11-23T19:07:49.144Z,88.95
2018-11-23T19:10:17.686Z,88.79
2018-11-23T19:12:46.144Z,88.89
2018-11-23T19:15:17.534Z,89.27
2018-11-23T19:17:45.315Z,89.83
2018-11-23T19:20:17.738Z,89.69
2018-11-23T19:22:47.401Z,89.31
2018-11-23T19:25:16.055Z,89.12
2018-11-23T19:27:45.733Z,89.03
2018-11-23T19:30:15.623Z,89.06
2018-11-23T19:32:44.189Z,89.14
2018-11-23T19:35:12.741Z,89.13
2018-11-23T19:37:41.306Z,89.17
2018-11-23T19:40:12.574Z,89.28
2018-11-23T19:42:41.060Z,89.40
2018-11-23T19:45:11.158Z,89.62
2018-11-23T19:47:39.646Z,90.22
2018-11-23T19:50:11.654Z,90.15
2018-11-23T19:52:40.319Z,90.14
2018-11-23T19:55:09.385Z,89.31
2018-11-23T19:57:37.867Z,89.18
2018-11-23T20:00:17.713Z,89.72
2018-11-23T20:02:46.613Z,89.11
2018-11-23T20:05:15.111Z,89.58
2018-11-23T20:07:43.753Z,89.66
2018-11-23T20:10:13.923Z,89.66
2018-11-23T20:12:42.506Z,90.12
2018-11-23T20:15:13.675Z,89.24
2018-11-23T20:17:42.175Z,88.66
2018-11-23T20:20:12.761Z,88.87
2018-11-23T20:22:41.215Z,88.66
2018-11-23T20:25:12.223Z,87.96
2018-11-23T20:27:41.290Z,88.76
2018-11-23T20:30:12.958Z,88.92
2018-11-23T20:32:41.499Z,89.06
2018-11-23T20:35:13.393Z,89.21
2018-11-23T20:37:42.429Z,89.62
2018-11-23T20:40:18.072Z,89.22
2018-11-23T20:42:47.127Z,89.79
2018-11-23T20:45:15.678Z,89.42
2018-11-23T20:47:45.092Z,89.03
2018-11-23T20:50:14.875Z,89.24
2018-11-23T20:52:43.425Z,89.59
2018-11-23T20:55:16.004Z,89.30
2018-11-23T20:57:44.482Z,89.46
2018-11-23T21:00:14.992Z,89.49
2018-11-23T21:02:43.744Z,88.86
2018-11-23T21:05:13.330Z,89.21
2018-11-23T21:07:41.884Z,88.91
2018-11-23T21:10:20.120Z,88.58
2018-11-23T21:12:42.114Z,88.32
2018-11-23T21:15:23.727Z,88.40
2018-11-23T21:17:53.325Z,88.57
2018-11-23T21:20:21.804Z,88.55
2018-11-23T21:22:50.245Z,88.78
2018-11-23T21:25:18.793Z,88.93
2018-11-23T21:27:47.268Z,88.98
2018-11-23T21:30:18.810Z,89.27
2018-11-23T21:32:47.330Z,88.89
2018-11-23T21:35:15.849Z,88.66
2018-11-23T21:37:44.342Z,88.22
2018-11-23T21:40:13.961Z,88.58
2018-11-23T21:42:42.417Z,88.76
2018-11-23T21:45:15.916Z,89.27
2018-11-23T21:47:44.417Z,89.28
2018-11-23T21:50:15.035Z,89.22
2018-11-23T21:52:43.526Z,89.46
2018-11-23T21:55:20.499Z,88.78
2018-11-23T21:57:49.041Z,89.29
2018-11-23T22:00:17.533Z,89.06
2018-11-23T22:02:46.046Z,89.34
2018-11-23T22:05:14.568Z,89.98
2018-11-23T22:07:43.064Z,90.08
2018-11-23T22:10:15.335Z,89.91
2018-11-23T22:12:44.250Z,89.64
2018-11-23T22:15:16.221Z,89.31
2018-11-23T22:17:45.376Z,89.33
2018-11-23T22:20:15.116Z,88.69
2018-11-23T22:22:43.603Z,88.57
2018-11-23T22:25:13.447Z,88.29
2018-11-23T22:27:42.059Z,88.49
2018-11-23T22:30:13.840Z,88.61
2018-11-23T22:32:42.356Z,88.36
2018-11-23T22:35:11.910Z,89.03
2018-11-23T22:37:40.395Z,89.16
2018-11-23T22:40:11.335Z,88.95
2018-11-23T22:42:40.048Z,89.21
2018-11-23T22:45:10.056Z,88.92
2018-11-23T22:47:38.965Z,88.75
2018-11-23T22:50:09.732Z,88.75
2018-11-23T22:52:39.176Z,88.92
2018-11-23T22:55:09.501Z,89.07
2018-11-23T22:57:38.092Z,88.72
2018-11-23T23:00:10.650Z,89.22
2018-11-23T23:02:39.189Z,88.59
2018-11-23T23:05:08.046Z,89.05
2018-11-23T23:07:37.450Z,88.67
2018-11-23T23:10:06.479Z,88.92
2018-11-23T23:12:35.145Z,89.03
2018-11-23T23:15:04.206Z,89.13
2018-11-23T23:17:32.625Z,88.96
2018-11-23T23:20:01.126Z,88.86
2018-11-23T23:22:29.570Z,88.16
2018-11-23T23:24:58.818Z,89.34
2018-11-23T23:27:27.272Z,88.77
2018-11-23T23:29:55.728Z,89.17
2018-11-23T23:32:24.186Z,89.24
2018-11-23T23:34:52.610Z,89.48
2018-11-23T23:37:21.084Z,89.22
2018-11-23T23:39:49.508Z,88.62
2018-11-23T23:42:17.917Z,89.09
2018-11-23T23:44:46.347Z,88.91
2018-11-23T23:47:15.049Z,89.07
2018-11-23T23:49:43.684Z,88.79
2018-11-23T23:52:19.450Z,89.28
2018-11-23T23:54:47.871Z,89.38
2018-11-23T23:57:16.332Z,89.55
2018-11-23T23:59:44.788Z,89.59
